createdAt,value
2022-09-13T00:01:19.877Z,20.80
2022-09-13T00:03:48.412Z,20.72
2022-09-13T00:06:18.944Z,20.91
2022-09-13T00:08:47.862Z,20.92
2022-09-13T00:11:18.544Z,21.20
2022-09-13T00:13:48.663Z,21.29
2022-09-13T00:16:20.273Z,21.41
2022-09-13T00:18:49.309Z,21.63
2022-09-13T00:21:20.723Z,21.72
2022-09-13T00:23:51.283Z,21.73
2022-09-13T00:26:22.513Z,21.77
2022-09-13T00:28:53.096Z,21.83
2022-09-13T00:31:23.527Z,21.80
2022-09-13T00:33:52.285Z,21.80
2022-09-13T00:36:20.934Z,21.73
2022-09-13T00:38:49.454Z,21.64
2022-09-13T00:41:21.419Z,21.72
2022-09-13T00:43:53.661Z,21.69
2022-09-13T00:46:31.224Z,21.72
2022-09-13T00:49:09.378Z,21.67
2022-09-13T00:51:38.233Z,21.61
2022-09-13T00:54:06.827Z,21.61
2022-09-13T00:56:39.464Z,21.59
2022-09-13T00:59:14.343Z,21.59
2022-09-13T01:01:49.330Z,21.58
2022-09-13T01:04:21.056Z,21.55
2022-09-13T01:06:52.847Z,21.46
2022-09-13T01:09:21.439Z,21.35
2022-09-13T01:12:00.867Z,21.55
2022-09-13T01:14:31.258Z,21.53
2022-09-13T01:16:59.796Z,21.32
2022-09-13T01:19:29.149Z,21.22
2022-09-13T01:22:40.900Z,21.01
2022-09-13T01:25:41.209Z,21.05
2022-09-13T01:28:27.822Z,21.11
2022-09-13T01:31:04.002Z,21.12
2022-09-13T01:33:45.221Z,21.08
2022-09-13T01:36:26.239Z,21.05
2022-09-13T01:39:02.667Z,21.03
2022-09-13T01:41:49.236Z,20.97
2022-09-13T01:44:30.585Z,21.00
2022-09-13T01:47:07.757Z,20.90
2022-09-13T01:49:47.574Z,20.90
2022-09-13T01:52:22.434Z,20.89
2022-09-13T01:54:58.731Z,20.76
2022-09-13T01:57:33.700Z,20.60
2022-09-13T02:00:07.638Z,20.37
2022-09-13T02:02:47.574Z,20.22
2022-09-13T02:05:20.376Z,20.09
2022-09-13T02:07:55.227Z,20.04
2022-09-13T02:10:27.985Z,19.96
2022-09-13T02:12:59.555Z,19.87
2022-09-13T02:15:32.237Z,19.87
2022-09-13T02:18:08.742Z,19.78
2022-09-13T02:20:40.282Z,19.70
2022-09-13T02:23:14.994Z,19.74
2022-09-13T02:25:47.653Z,19.60
2022-09-13T02:28:21.171Z,19.44
2022-09-13T02:30:54.649Z,19.36
2022-09-13T02:33:29.058Z,19.23
2022-09-13T02:36:03.047Z,19.31
2022-09-13T02:38:34.717Z,19.31
2022-09-13T02:41:11.927Z,19.38
2022-09-13T02:43:45.277Z,19.33
2022-09-13T02:46:23.373Z,19.43
2022-09-13T02:49:01.307Z,19.50
2022-09-13T02:51:37.818Z,19.51
2022-09-13T02:54:17.488Z,19.46
2022-09-13T02:56:54.214Z,19.49
2022-09-13T02:59:25.038Z,19.46
2022-09-13T03:01:59.706Z,19.45
2022-09-13T03:04:30.702Z,19.49
2022-09-13T03:06:59.649Z,19.56
2022-09-13T03:09:28.549Z,19.55
2022-09-13T03:12:23.358Z,19.57
2022-09-13T03:14:59.389Z,19.59
2022-09-13T03:17:43.676Z,19.62
2022-09-13T03:20:19.303Z,19.66
2022-09-13T03:23:04.270Z,19.79
2022-09-13T03:25:46.140Z,19.76
2022-09-13T03:28:24.435Z,19.97
2022-09-13T03:31:04.268Z,20.08
2022-09-13T03:33:42.583Z,20.15
2022-09-13T03:36:16.532Z,20.16
2022-09-13T03:38:54.998Z,20.15
2022-09-13T03:41:28.848Z,20.12
2022-09-13T03:44:00.662Z,20.14
2022-09-13T03:46:34.930Z,20.14
2022-09-13T03:49:06.318Z,20.20
2022-09-13T03:51:37.977Z,20.23
2022-09-13T03:54:10.985Z,20.13
2022-09-13T03:56:39.414Z,20.20
2022-09-13T03:59:07.919Z,20.12
2022-09-13T04:04:47.199Z,20.07
2022-09-13T04:07:19.397Z,20.06
2022-09-13T04:09:48.022Z,20.06
2022-09-13T04:12:17.387Z,20.07
2022-09-13T04:14:46.257Z,20.16
2022-09-13T04:17:15.680Z,20.20
2022-09-13T04:19:47.243Z,20.11
2022-09-13T04:22:17.381Z,20.15
2022-09-13T04:24:46.007Z,20.14
2022-09-13T04:27:14.748Z,20.20
2022-09-13T04:29:43.741Z,20.24
2022-09-13T04:32:12.214Z,20.25
2022-09-13T04:34:40.718Z,20.22
2022-09-13T04:37:10.092Z,20.18
2022-09-13T04:39:40.144Z,20.10
2022-09-13T04:42:08.916Z,20.09
2022-09-13T04:44:37.380Z,20.05
2022-09-13T04:47:08.211Z,20.13
2022-09-13T04:49:36.686Z,20.08
2022-09-13T04:52:05.162Z,20.11
2022-09-13T04:54:33.605Z,20.11
2022-09-13T04:57:03.480Z,20.09
2022-09-13T04:59:32.111Z,20.09
2022-09-13T05:02:00.671Z,20.12
2022-09-13T05:04:29.171Z,20.12
2022-09-13T05:06:58.968Z,20.19
2022-09-13T05:09:27.466Z,20.20
2022-09-13T05:11:55.948Z,20.16
2022-09-13T05:14:25.831Z,20.20
2022-09-13T05:16:54.254Z,20.14
2022-09-13T05:19:22.748Z,20.19
2022-09-13T05:21:51.193Z,20.21
2022-09-13T05:24:19.678Z,20.23
2022-09-13T05:26:48.619Z,20.15
2022-09-13T05:29:17.037Z,20.09
2022-09-13T05:31:47.977Z,20.02
2022-09-13T05:34:19.858Z,19.99
2022-09-13T05:36:54.142Z,20.01
2022-09-13T05:39:54.374Z,19.98
2022-09-13T05:42:11.597Z,19.94
2022-09-13T05:44:40.489Z,19.91
2022-09-13T05:47:10.352Z,19.78
2022-09-13T05:49:51.119Z,19.76
2022-09-13T05:52:27.754Z,19.83
2022-09-13T05:54:56.185Z,19.74
2022-09-13T05:57:24.638Z,19.64
2022-09-13T05:59:53.120Z,19.63
2022-09-13T06:02:23.425Z,19.58
2022-09-13T06:04:52.111Z,19.59
2022-09-13T06:07:20.586Z,19.59
2022-09-13T06:09:49.096Z,19.54
2022-09-13T06:12:17.527Z,19.59
2022-09-13T06:14:45.978Z,19.62
2022-09-13T06:17:15.099Z,19.60
2022-09-13T06:19:44.955Z,19.65
2022-09-13T06:22:13.469Z,19.65
2022-09-13T06:24:41.866Z,19.70
2022-09-13T06:27:10.526Z,19.76
2022-09-13T06:29:39.026Z,19.78
2022-09-13T06:32:07.909Z,19.78
2022-09-13T06:34:36.329Z,19.82
2022-09-13T06:37:06.367Z,19.96
2022-09-13T06:39:34.851Z,19.98
2022-09-13T06:42:03.436Z,19.99
2022-09-13T06:44:41.112Z,20.00
2022-09-13T06:47:09.915Z,20.08
2022-09-13T06:49:38.388Z,20.09
2022-09-13T06:52:08.898Z,20.11
2022-09-13T06:54:37.401Z,20.10
2022-09-13T06:57:06.083Z,20.13
2022-09-13T06:59:35.180Z,20.12
2022-09-13T07:02:04.178Z,20.13
2022-09-13T07:04:32.759Z,20.17
2022-09-13T07:07:01.426Z,20.19
2022-09-13T07:09:31.360Z,20.25
2022-09-13T07:11:59.971Z,20.29
2022-09-13T07:14:30.257Z,20.37
2022-09-13T07:16:59.033Z,20.50
2022-09-13T07:19:29.297Z,20.60
2022-09-13T07:21:59.013Z,20.60
2022-09-13T07:24:27.901Z,20.65
2022-09-13T07:26:57.750Z,20.66
2022-09-13T07:29:26.245Z,20.81
2022-09-13T07:31:56.850Z,20.63
2022-09-13T07:34:27.590Z,20.60
2022-09-13T07:36:56.129Z,20.56
2022-09-13T07:39:25.568Z,20.63
2022-09-13T07:41:54.980Z,20.63
2022-09-13T07:44:24.857Z,20.66
2022-09-13T07:46:53.368Z,20.71
2022-09-13T07:49:21.846Z,20.79
2022-09-13T07:51:51.659Z,20.84
2022-09-13T07:54:21.659Z,21.22
2022-09-13T07:56:51.926Z,21.48
2022-09-13T07:59:20.857Z,21.41
2022-09-13T08:01:52.217Z,21.26
2022-09-13T08:04:22.363Z,21.22
2022-09-13T08:06:50.799Z,21.16
2022-09-13T08:09:19.817Z,21.33
2022-09-13T08:11:53.020Z,21.44
2022-09-13T08:14:23.515Z,22.22
2022-09-13T08:16:56.440Z,23.28
2022-09-13T08:19:24.909Z,23.16
2022-09-13T08:21:53.328Z,22.76
2022-09-13T08:24:22.959Z,22.66
2022-09-13T08:26:52.270Z,22.60
2022-09-13T08:29:20.886Z,22.42
2022-09-13T08:31:49.425Z,22.91
2022-09-13T08:34:21.371Z,23.13
2022-09-13T08:36:50.236Z,22.80
2022-09-13T08:39:18.678Z,22.37
2022-09-13T08:42:13.013Z,21.84
2022-09-13T08:44:45.807Z,21.72
2022-09-13T08:47:41.773Z,22.38
2022-09-13T08:50:20.290Z,23.10
2022-09-13T08:53:01.515Z,24.83
2022-09-13T08:55:45.494Z,25.13
2022-09-13T08:58:46.563Z,25.25
2022-09-13T09:01:26.969Z,25.38
2022-09-13T09:04:01.980Z,24.54
2022-09-13T09:06:32.095Z,24.10
2022-09-13T09:09:05.754Z,23.39
2022-09-13T09:11:42.972Z,23.50
2022-09-13T09:14:20.036Z,23.77
2022-09-13T09:16:52.647Z,23.56
2022-09-13T09:19:27.281Z,23.54
2022-09-13T09:21:57.079Z,23.22
2022-09-13T09:24:26.952Z,22.96
2022-09-13T09:26:58.614Z,22.96
2022-09-13T09:29:32.787Z,22.77
2022-09-13T09:32:17.258Z,23.00
2022-09-13T09:34:56.639Z,23.45
2022-09-13T09:37:29.243Z,23.62
2022-09-13T09:40:04.238Z,23.84
2022-09-13T09:42:42.297Z,23.30
2022-09-13T09:45:26.792Z,22.98
2022-09-13T09:47:57.349Z,22.94
2022-09-13T09:50:29.002Z,22.79
2022-09-13T09:53:03.012Z,22.69
2022-09-13T09:55:34.595Z,22.64
2022-09-13T09:58:06.317Z,23.02
2022-09-13T10:00:37.695Z,23.19
2022-09-13T10:03:09.154Z,24.15
2022-09-13T10:05:38.062Z,25.40
2022-09-13T10:08:09.522Z,26.15
2022-09-13T10:10:42.580Z,27.10
2022-09-13T10:13:18.207Z,27.57
2022-09-13T10:15:58.304Z,27.92
2022-09-13T10:18:44.851Z,29.47
2022-09-13T10:21:24.886Z,29.30
2022-09-13T10:24:19.231Z,27.87
2022-09-13T10:26:48.779Z,28.07
2022-09-13T10:29:19.496Z,26.82
2022-09-13T10:31:53.558Z,25.78
2022-09-13T10:34:24.576Z,25.11
2022-09-13T10:36:57.369Z,24.43
2022-09-13T10:39:29.865Z,24.40
2022-09-13T10:42:02.341Z,23.92
2022-09-13T10:44:35.279Z,23.18
2022-09-13T10:47:07.666Z,22.62
2022-09-13T10:49:41.721Z,22.18
2022-09-13T10:52:34.959Z,21.75
2022-09-13T10:55:30.321Z,21.25
2022-09-13T10:58:16.795Z,21.00
2022-09-13T11:01:09.854Z,20.79
2022-09-13T11:04:06.862Z,20.64
2022-09-13T11:06:43.880Z,20.55
2022-09-13T11:09:16.793Z,20.57
2022-09-13T11:11:54.675Z,20.69
2022-09-13T11:14:46.702Z,20.84
2022-09-13T11:17:28.423Z,21.19
2022-09-13T11:20:13.774Z,21.90
2022-09-13T11:23:13.846Z,22.88
2022-09-13T11:25:58.662Z,23.69
2022-09-13T11:28:38.920Z,24.27
2022-09-13T11:31:27.326Z,25.66
2022-09-13T11:34:08.723Z,27.03
2022-09-13T11:36:58.965Z,27.62
2022-09-13T11:39:33.210Z,28.18
2022-09-13T11:42:15.782Z,29.63
2022-09-13T11:45:20.856Z,27.73
2022-09-13T11:48:04.169Z,27.73
2022-09-13T11:50:39.925Z,28.11
2022-09-13T11:53:30.857Z,27.19
2022-09-13T11:56:03.570Z,27.62
2022-09-13T11:58:37.450Z,27.69
2022-09-13T12:01:11.030Z,26.23
2022-09-13T12:03:46.617Z,25.54
2022-09-13T12:06:22.188Z,25.49
2022-09-13T12:08:54.244Z,26.00
2022-09-13T12:11:26.207Z,26.90
2022-09-13T12:13:58.509Z,26.29
2022-09-13T12:16:36.291Z,25.80
2022-09-13T12:19:09.331Z,25.05
2022-09-13T12:21:40.756Z,24.83
2022-09-13T12:24:16.352Z,25.02
2022-09-13T12:26:51.207Z,25.43
2022-09-13T12:29:25.289Z,25.51
2022-09-13T12:32:00.656Z,25.56
2022-09-13T12:34:36.172Z,25.17
2022-09-13T12:37:17.544Z,25.99
2022-09-13T12:40:31.345Z,26.38
2022-09-13T12:43:21.018Z,26.25
2022-09-13T12:46:16.911Z,25.75
2022-09-13T12:49:12.445Z,25.30
2022-09-13T12:52:02.055Z,24.66
2022-09-13T12:54:58.036Z,24.61
2022-09-13T12:57:37.179Z,24.83
2022-09-13T13:00:20.844Z,24.31
2022-09-13T13:03:11.587Z,24.30
2022-09-13T13:05:44.564Z,24.16
2022-09-13T13:08:27.940Z,23.52
2022-09-13T13:11:05.683Z,22.36
2022-09-13T13:13:38.189Z,22.42
2022-09-13T13:16:24.010Z,22.64
2022-09-13T13:18:53.564Z,23.24
2022-09-13T13:21:43.453Z,24.04
2022-09-13T13:24:40.665Z,24.23
2022-09-13T13:27:48.574Z,24.44
2022-09-13T13:30:44.008Z,24.21
2022-09-13T13:33:20.100Z,24.35
2022-09-13T13:35:49.134Z,23.70
2022-09-13T13:38:38.861Z,23.59
2022-09-13T13:41:12.853Z,23.34
2022-09-13T13:43:41.564Z,23.37
2022-09-13T13:46:27.214Z,23.38
2022-09-13T13:48:55.794Z,23.18
2022-09-13T13:51:29.414Z,23.17
2022-09-13T13:54:02.996Z,23.19
2022-09-13T13:56:49.233Z,23.18
2022-09-13T13:59:28.453Z,22.87
2022-09-13T14:02:02.111Z,22.63
2022-09-13T14:05:08.423Z,22.92
2022-09-13T14:08:23.854Z,23.00
2022-09-13T14:11:00.936Z,22.15
2022-09-13T14:13:46.927Z,21.89
2022-09-13T14:16:30.612Z,21.65
2022-09-13T14:19:19.881Z,21.69
2022-09-13T14:22:06.996Z,22.16
2022-09-13T14:24:39.777Z,22.41
2022-09-13T14:27:16.275Z,22.32
2022-09-13T14:29:47.531Z,22.09
2022-09-13T14:32:20.592Z,21.55
2022-09-13T14:34:57.214Z,21.20
2022-09-13T14:37:29.888Z,21.12
2022-09-13T14:40:01.751Z,21.12
2022-09-13T14:42:41.800Z,21.07
2022-09-13T14:45:15.070Z,21.21
2022-09-13T14:47:52.462Z,21.24
2022-09-13T14:50:25.757Z,21.34
2022-09-13T14:52:58.612Z,21.46
2022-09-13T14:55:31.338Z,21.57
2022-09-13T14:58:04.456Z,21.64
2022-09-13T15:00:36.008Z,21.63
2022-09-13T15:03:12.382Z,21.56
2022-09-13T15:05:41.780Z,21.67
2022-09-13T15:08:45.112Z,21.61
2022-09-13T15:11:17.776Z,21.41
2022-09-13T15:13:47.802Z,21.20
2022-09-13T15:16:27.865Z,20.99
2022-09-13T15:19:18.486Z,20.81
2022-09-13T15:21:47.053Z,20.73
2022-09-13T15:24:23.483Z,20.65
2022-09-13T15:27:03.445Z,20.69
2022-09-13T15:29:35.063Z,20.51
2022-09-13T15:32:04.201Z,20.61
2022-09-13T15:34:32.979Z,20.79
2022-09-13T15:37:11.330Z,20.86
2022-09-13T15:39:48.625Z,20.92
2022-09-13T15:42:18.404Z,20.93
2022-09-13T15:44:48.520Z,20.84
2022-09-13T15:47:19.800Z,20.84
2022-09-13T15:49:50.823Z,20.78
2022-09-13T15:52:21.207Z,20.79
2022-09-13T15:54:51.082Z,20.87
2022-09-13T15:57:23.741Z,20.99
2022-09-13T15:59:54.389Z,21.13
2022-09-13T16:02:25.877Z,21.17
2022-09-13T16:04:54.404Z,21.24
2022-09-13T16:07:23.593Z,21.27
2022-09-13T16:09:52.732Z,21.22
2022-09-13T16:12:24.408Z,21.18
2022-09-13T16:14:54.902Z,21.11
2022-09-13T16:17:25.265Z,20.94
2022-09-13T16:19:54.268Z,20.76
2022-09-13T16:22:23.180Z,20.95
2022-09-13T16:24:51.777Z,20.97
2022-09-13T16:27:21.370Z,21.00
2022-09-13T16:29:49.932Z,21.23
2022-09-13T16:32:19.981Z,21.47
2022-09-13T16:34:48.795Z,21.72
2022-09-13T16:37:19.115Z,22.24
2022-09-13T16:39:47.844Z,22.49
2022-09-13T16:42:17.774Z,22.34
2022-09-13T16:44:47.070Z,22.58
2022-09-13T16:47:15.530Z,22.69
2022-09-13T16:49:45.443Z,22.84
2022-09-13T16:52:13.968Z,22.69
2022-09-13T16:54:43.142Z,22.47
2022-09-13T16:57:11.612Z,22.62
2022-09-13T16:59:41.416Z,22.28
2022-09-13T17:02:12.153Z,22.15
2022-09-13T17:04:40.967Z,22.44
2022-09-13T17:07:10.809Z,22.23
2022-09-13T17:09:40.775Z,22.06
2022-09-13T17:12:10.308Z,22.18
2022-09-13T17:14:39.214Z,22.35
2022-09-13T17:17:08.043Z,22.44
2022-09-13T17:19:36.963Z,22.42
2022-09-13T17:22:08.267Z,22.60
2022-09-13T17:24:39.284Z,22.65
2022-09-13T17:27:08.336Z,22.76
2022-09-13T17:29:37.523Z,22.75
2022-09-13T17:32:07.838Z,22.77
2022-09-13T17:34:36.262Z,22.91
2022-09-13T17:37:06.704Z,22.91
2022-09-13T17:39:35.439Z,22.91
2022-09-13T17:42:05.621Z,22.96
2022-09-13T17:44:34.078Z,22.77
2022-09-13T17:47:03.295Z,22.72
2022-09-13T17:49:31.737Z,22.67
2022-09-13T17:52:00.316Z,22.43
2022-09-13T17:54:28.848Z,22.27
2022-09-13T17:56:57.373Z,22.31
2022-09-13T17:59:28.049Z,22.22
2022-09-13T18:01:59.488Z,22.05
2022-09-13T18:04:28.270Z,21.90
2022-09-13T18:06:56.828Z,21.63
2022-09-13T18:09:26.460Z,21.25
2022-09-13T18:11:55.031Z,20.95
2022-09-13T18:14:23.992Z,20.75
2022-09-13T18:16:55.928Z,20.75
2022-09-13T18:19:44.455Z,20.75
2022-09-13T18:22:12.963Z,20.71
2022-09-13T18:24:41.481Z,20.72
2022-09-13T18:27:10.375Z,20.70
2022-09-13T18:29:38.909Z,20.65
2022-09-13T18:32:08.912Z,20.66
2022-09-13T18:34:37.374Z,20.67
2022-09-13T18:37:06.053Z,20.62
2022-09-13T18:39:34.512Z,20.65
2022-09-13T18:42:03.049Z,20.64
2022-09-13T18:44:33.949Z,20.60
2022-09-13T18:47:04.871Z,20.48
2022-09-13T18:49:35.208Z,20.55
2022-09-13T18:52:04.222Z,20.56
2022-09-13T18:54:32.700Z,20.40
2022-09-13T18:57:01.303Z,20.49
2022-09-13T18:59:32.223Z,20.54
2022-09-13T19:02:01.132Z,20.42
2022-09-13T19:04:29.694Z,20.57
2022-09-13T19:07:02.495Z,20.57
2022-09-13T19:09:30.963Z,20.46
2022-09-13T19:11:59.398Z,20.60
2022-09-13T19:14:29.901Z,20.51
2022-09-13T19:17:01.265Z,20.69
2022-09-13T19:19:31.061Z,20.66
2022-09-13T19:22:00.921Z,20.71
2022-09-13T19:24:29.545Z,20.67
2022-09-13T19:26:58.053Z,20.54
2022-09-13T19:29:26.930Z,20.64
2022-09-13T19:31:56.131Z,20.56
2022-09-13T19:34:25.003Z,20.60
2022-09-13T19:36:58.249Z,20.54
2022-09-13T19:39:30.246Z,20.51
2022-09-13T19:42:00.662Z,20.51
2022-09-13T19:44:29.556Z,20.47
2022-09-13T19:47:44.769Z,20.53
2022-09-13T19:49:49.736Z,20.49
2022-09-13T19:52:18.394Z,20.52
2022-09-13T19:54:48.256Z,20.50
2022-09-13T19:57:16.742Z,20.46
2022-09-13T19:59:45.423Z,20.39
2022-09-13T20:02:13.862Z,20.31
2022-09-13T20:04:42.660Z,20.23
2022-09-13T20:07:13.436Z,20.09
2022-09-13T20:09:42.560Z,19.97
2022-09-13T20:12:12.729Z,19.95
2022-09-13T20:14:41.232Z,19.95
2022-09-13T20:17:09.947Z,19.92
2022-09-13T20:19:42.873Z,19.93
2022-09-13T20:22:14.910Z,19.95
2022-09-13T20:24:43.361Z,20.02
2022-09-13T20:27:13.527Z,20.00
2022-09-13T20:29:42.123Z,20.05
2022-09-13T20:32:11.420Z,19.86
2022-09-13T20:34:39.897Z,19.95
2022-09-13T20:37:08.475Z,19.93
2022-09-13T20:39:36.946Z,20.10
2022-09-13T20:42:05.795Z,20.07
2022-09-13T20:44:35.937Z,20.14
2022-09-13T20:47:05.535Z,20.03
2022-09-13T20:49:33.949Z,20.01
2022-09-13T20:52:02.888Z,20.04
2022-09-13T20:54:31.361Z,20.03
2022-09-13T20:56:59.820Z,20.04
2022-09-13T20:59:28.681Z,20.09
2022-09-13T21:01:58.918Z,20.11
2022-09-13T21:04:27.534Z,20.09
2022-09-13T21:07:14.806Z,20.03
2022-09-13T21:09:44.015Z,20.14
2022-09-13T21:12:12.521Z,20.12
2022-09-13T21:14:41.198Z,20.12
2022-09-13T21:17:11.699Z,20.14
2022-09-13T21:19:40.254Z,20.10
2022-09-13T21:22:10.298Z,20.10
2022-09-13T21:24:38.762Z,20.13
2022-09-13T21:27:07.809Z,20.06
2022-09-13T21:29:36.947Z,20.08
2022-09-13T21:32:05.501Z,20.09
2022-09-13T21:34:35.338Z,20.09
2022-09-13T21:37:03.856Z,20.12
2022-09-13T21:39:32.332Z,20.06
2022-09-13T21:42:00.821Z,20.10
2022-09-13T21:44:29.397Z,20.10
2022-09-13T21:46:58.321Z,20.11
2022-09-13T21:49:26.758Z,20.01
2022-09-13T21:51:56.888Z,19.99
2022-09-13T21:54:25.698Z,19.99
2022-09-13T21:56:55.581Z,19.99
2022-09-13T21:59:24.773Z,19.90
2022-09-13T22:01:54.475Z,19.73
2022-09-13T22:04:25.482Z,19.71
2022-09-13T22:06:54.900Z,19.70
2022-09-13T22:09:27.749Z,19.70
2022-09-13T22:11:56.671Z,19.63
2022-09-13T22:14:25.358Z,19.60
2022-09-13T22:16:53.943Z,19.54
2022-09-13T22:19:26.103Z,19.42
2022-09-13T22:21:57.109Z,19.52
2022-09-13T22:24:29.451Z,19.55
2022-09-13T22:26:59.281Z,19.52
2022-09-13T22:29:28.639Z,19.47
2022-09-13T22:31:57.782Z,19.61
2022-09-13T22:34:31.036Z,19.52
2022-09-13T22:37:00.251Z,19.68
2022-09-13T22:39:30.145Z,19.76
2022-09-13T22:41:58.659Z,19.74
2022-09-13T22:44:27.632Z,19.77
2022-09-13T22:46:56.093Z,19.80
2022-09-13T22:49:24.602Z,19.73
2022-09-13T22:51:53.092Z,19.86
2022-09-13T22:54:21.501Z,19.67
2022-09-13T22:56:51.802Z,19.57
2022-09-13T22:59:22.569Z,19.76
2022-09-13T23:01:51.154Z,19.80
2022-09-13T23:04:19.688Z,19.75
2022-09-13T23:06:48.217Z,19.84
2022-09-13T23:09:19.330Z,19.91
2022-09-13T23:11:48.291Z,19.82
2022-09-13T23:14:20.326Z,19.56
2022-09-13T23:16:51.425Z,19.52
2022-09-13T23:19:22.006Z,19.52
2022-09-13T23:21:50.675Z,19.71
2022-09-13T23:24:20.165Z,19.71
2022-09-13T23:26:49.023Z,19.65
2022-09-13T23:29:20.884Z,19.75
2022-09-13T23:31:49.858Z,19.78
2022-09-13T23:34:18.982Z,19.78
2022-09-13T23:36:47.967Z,19.56
2022-09-13T23:39:19.158Z,19.51
2022-09-13T23:41:49.537Z,19.46
2022-09-13T23:44:19.632Z,19.47
2022-09-13T23:46:48.094Z,19.53
2022-09-13T23:49:17.003Z,19.58
2022-09-13T23:51:46.265Z,19.60
2022-09-13T23:54:15.253Z,19.55
2022-09-13T23:56:44.162Z,19.64
2022-09-13T23:59:14.228Z,19.76
